Terminal Aerodrome Forecast
Issued by NWS Amarillo, TX

Home | Current Version | Previous Version | Text Only | Print | Product List | Glossary On
Versions: 1 2 3 4 5 6 7 8 9 10 11 12 13 14 15
038
FTUS44 KAMA 251720
TAFGUY
TAF
KGUY 251720Z 2518/2618 36013KT P6SM SCT025 BKN100
      TEMPO 2518/2522 BKN020
     FM252200 04012KT P6SM SCT015 OVC080
     FM260700 02019G28KT P6SM -SHRA OVC015
     FM261400 36018G27KT P6SM SCT015 SCT120=

USA.gov is the U.S. government's official web portal to all federal, state and local government web resources and services.